Flight Track Log - Related Links

Times and Time Zones

All times are in EDT time to prevent confusion due to time zone crossing. See the ANO333 flight status page for this flight to view local times or setup timezone preferences in your user account.

Time Position Orientation Groundspeed Altitude Reporting Facility
EDT Latitude Longitude Course Direction KTS MPH feet Rate Location/Type
Fri 03:08:42 AM -15.4983 128.8936 33° Northeast 31,000  Level Aus ATC (Calculated)
Fri 03:08:53 AM -15.4983 128.8936 33° Northeast 31,000 -1,167 Level Aus ATC (Calculated)
Fri 03:09:37 AM -15.4290 128.9398 33° Northeast 31,000 -1,195 Level Aus ATC (Calculated)
Fri 03:11:00 AM -15.3209 129.0116 33° Northeast  Level FlightAware Approximate
Fri 03:12:00 AM -15.2427 129.0635 33° Northeast  Level FlightAware Approximate
Fri 03:12:37 AM -15.0822 129.1699 209° Southwest 31,000  Level Aus ATC (Calculated)
Fri 03:13:15 AM -15.0128 129.2158 211° Southwest 31,000 -2,319 Level Aus ATC (Calculated)
Fri 03:14:05 AM -14.9434 129.2617 212° Southwest 31,000 -2,760 Level Aus ATC (Calculated)
Fri 03:14:05 AM -14.9434 129.2617 212° Southwest 31,000 -3,680 Level Aus ATC (Calculated)
Fri 03:16:00 AM -14.7935 129.3607 33° Northeast  Level FlightAware Approximate
Fri 03:16:35 AM -15.1290 129.1426 33° Northeast 391 450 21,800  Level Aus ATC (RADAR)
Fri 03:17:10 AM -15.0721 129.1735 28° Northeast 397 457 22,800 1,920 Climbing Aus ATC (RADAR)
Fri 03:17:50 AM -15.0106 129.2152 33° Northeast 397 457 24,200 1,680 Climbing Aus ATC (RADAR)
Fri 03:18:25 AM -14.9558 129.2525 33° Northeast 409 471 24,900 1,271 Climbing Aus ATC (RADAR)
Fri 03:19:15 AM -14.8729 129.3015 30° Northeast 418 481 26,000 1,280 Climbing Aus ATC (RADAR)
Fri 03:19:40 AM -14.8334 129.3318 37° Northeast 421 484 26,500 1,200 Climbing Aus ATC (RADAR)
Fri 03:20:35 AM -14.7414 129.3928 33° Northeast 432 497 27,600 1,146 Climbing Aus ATC (RADAR)
Fri 03:21:09 AM -14.6802 129.4294 30° Northeast 438 504 28,200 1,220 Climbing Aus ATC (RADAR)
Fri 03:21:34 AM -14.6398 129.4633 39° Northeast 447 514 28,800 1,200 Climbing Aus ATC (RADAR)
Fri 03:22:09 AM -14.5769 129.5009 30° Northeast 448 516 29,400 1,200 Climbing Aus ATC (RADAR)
Fri 03:22:44 AM -14.5160 129.5415 33° Northeast 448 516 30,200 1,286 Climbing Aus ATC (RADAR)
Fri 03:23:19 AM -14.4546 129.5823 33° Northeast 450 518 30,900 494 Climbing Aus ATC (RADAR)
Fri 03:24:09 AM -14.3627 129.6391 31° Northeast 464 534 30,900  Level Aus ATC (RADAR)
Fri 03:24:34 AM -14.3182 129.6722 36° Northeast 469 540 30,900  Level Aus ATC (RADAR)
Fri 03:25:14 AM -14.2423 129.7233 33° Northeast 484 557 30,900  Level Aus ATC (RADAR)
Fri 03:26:04 AM -14.1476 129.7845 32° Northeast 482 555 30,900  Level Aus ATC (RADAR)
Fri 03:26:34 AM -14.0912 129.8223 33° Northeast 485 558 30,900  Level Aus ATC (RADAR)
Fri 03:27:09 AM -14.0243 129.8650 32° Northeast 485 558 30,900  Level Aus ATC (RADAR)
Fri 03:27:49 AM -13.9486 129.9148 33° Northeast 485 558 30,900  Level Aus ATC (RADAR)
Fri 03:28:24 AM -13.8817 129.9573 32° Northeast 484 557 30,900  Level Aus ATC (RADAR)
Fri 03:29:09 AM -13.7971 130.0141 33° Northeast 484 557 30,900  Level Aus ATC (RADAR)
Fri 03:29:34 AM -13.7496 130.0447 32° Northeast 485 558 30,900 158 Level Aus ATC (RADAR)
Fri 03:29:47 AM -13.7330 130.0570 31° Northeast 486 559 31,000  Climbing FlightAware ADS-B
Fri 03:30:14 AM -13.6721 130.0919 31° Northeast 486 559 30,900  Descending Aus ATC (RADAR)
Fri 03:30:17 AM -13.6760 130.0950 33° Northeast 486 559 31,000 -529 Climbing FlightAware ADS-B
Fri 03:31:22 AM -13.5470 130.1780 32° Northeast 471 542 30,300 -1,361 Descending FlightAware ADS-B
Fri 03:31:54 AM -13.4880 130.2163 32° Northeast 462 532 28,800 -2,267 Descending Aus ATC (RADAR)
Fri 03:32:07 AM -13.4690 130.2290 32° Northeast 441 507 28,600 -2,294 Descending FlightAware ADS-B
Fri 03:32:28 AM -13.4276 130.2543 32° Northeast 439 505 27,500 -2,250 Descending Aus ATC (RADAR)
Fri 03:32:47 AM -13.4030 130.2720 32° Northeast 426 490 27,100 -2,250 Descending FlightAware ADS-B
Fri 03:33:08 AM -13.3617 130.2986 32° Northeast 424 488 26,000 -2,267 Descending Aus ATC (RADAR)
Fri 03:33:32 AM -13.3310 130.3190 32° Northeast 404 465 25,400 -1,875 Descending FlightAware ADS-B
Fri 03:34:12 AM -13.2650 130.3620 32° Northeast 381 438 24,000 -2,262 Descending FlightAware ADS-B
Fri 03:34:33 AM -13.2300 130.3837 32° Northeast 380 437 23,100 -2,333 Descending Aus ATC (RADAR)
Fri 03:34:48 AM -13.2088 130.3979 33° Northeast 371 427 22,600 -1,263 Descending Aus ATC (RADAR)
Fri 03:34:52 AM -13.2080 130.3990 33° Northeast 360 414 22,700 -1,886 Climbing FlightAware ADS-B
Fri 03:35:23 AM -13.1606 130.4295 33° Northeast 355 409 21,500 -1,867 Descending Aus ATC (RADAR)
Fri 03:35:37 AM -13.1450 130.4400 33° Northeast 348 400 21,300 -1,667 Descending FlightAware ADS-B
Fri 03:36:17 AM -13.0900 130.4760 33° Northeast 346 398 20,000 -2,143 Descending FlightAware ADS-B
Fri 03:36:33 AM -13.0635 130.4902 33° Northeast 347 399 19,300 -1,733 Descending Aus ATC (RADAR)
Fri 03:37:02 AM -13.0290 130.5150 33° Northeast 347 399 18,700 -1,652 Descending FlightAware ADS-B
Fri 03:37:42 AM -12.9740 130.5510 33° Northeast 339 390 17,400 -2,028 Descending FlightAware ADS-B
Fri 03:38:13 AM -12.9306 130.5783 33° Northeast 337 388 16,300 -1,800 Descending Aus ATC (RADAR)
Fri 03:38:22 AM -12.9210 130.5850 33° Northeast 331 381 16,200 -1,714 Descending FlightAware ADS-B
Fri 03:38:48 AM -12.8845 130.6082 33° Northeast 335 386 15,300 -1,733 Descending Aus ATC (RADAR)
Fri 03:39:07 AM -12.8630 130.6230 33° Northeast 327 376 14,900 -1,627 Descending FlightAware ADS-B
Fri 03:39:47 AM -12.8120 130.6550 31° Northeast 311 358 13,700 -1,694 Descending FlightAware ADS-B
Fri 03:40:32 AM -12.7580 130.6900 32° Northeast 303 349 12,500 -1,553 Descending FlightAware ADS-B
Fri 03:41:12 AM -12.7110 130.7210 33° Northeast 292 336 11,500 -1,636 Descending FlightAware ADS-B
Fri 03:41:38 AM -12.6777 130.7425 33° Northeast 297 342 10,700 -1,467 Descending Aus ATC (RADAR)
Fri 03:41:57 AM -12.6580 130.7550 33° Northeast 277 319 10,400 -1,034 Descending FlightAware ADS-B
Fri 03:42:07 AM -12.6470 130.7590 20° North 269 310 10,200 -1,200 Descending FlightAware ADS-B
Fri 03:42:17 AM -12.6350 130.7600 North 257 296 10,000 -1,920 Descending FlightAware ADS-B
Fri 03:42:32 AM -12.6130 130.7581 North 262 302 9,400 -1,500 Descending Aus ATC (RADAR)
Fri 03:42:37 AM -12.6110 130.7550 North 244 281 9,500 -400 Climbing FlightAware ADS-B
Fri 03:42:47 AM -12.6010 130.7490 330° Northwest 250 288 9,300 -1,200 Descending FlightAware ADS-B
Fri 03:43:02 AM -12.5890 130.7350 311° West 243 280 9,000 -1,400 Descending FlightAware ADS-B
Fri 03:43:17 AM -12.5759 130.7210 311° West 240 276 8,600 -1,000 Descending Aus ATC (RADAR)
Fri 03:43:32 AM -12.5670 130.7100 311° West 248 285 8,500 -1,050 Descending FlightAware ADS-B
Fri 03:43:57 AM -12.5458 130.6857 311° West 238 274 7,900 -1,200 Descending Aus ATC (RADAR)
Fri 03:44:02 AM -12.5440 130.6830 311° West 247 284 7,900 -800 Level FlightAware ADS-B
Fri 03:44:27 AM -12.5250 130.6610 311° West 244 281 7,500 -900 Descending FlightAware ADS-B
Fri 03:44:42 AM -12.5140 130.6480 311° West 242 278 7,300 -800 Descending FlightAware ADS-B
Fri 03:45:12 AM -12.4920 130.6230 312° West 234 269 6,900 -873 Descending FlightAware ADS-B
Fri 03:45:37 AM -12.4740 130.6020 311° West 233 268 6,500 -873 Descending FlightAware ADS-B
Fri 03:46:07 AM -12.4520 130.5760 311° West 232 267 6,100 -655 Descending FlightAware ADS-B
Fri 03:46:32 AM -12.4320 130.5550 314° West 234 269 5,900 -450 Descending FlightAware ADS-B
Fri 03:46:47 AM -12.4180 130.5500 341° North 229 264 5,800 -300 Descending FlightAware ADS-B
Fri 03:47:12 AM -12.3920 130.5550 11° North 218 251 5,700 -600 Descending FlightAware ADS-B
Fri 03:47:37 AM -12.3639 130.5611 11° North 223 257 5,300 -400 Descending Aus ATC (RADAR)
Fri 03:47:42 AM -12.3610 130.5610 11° North 227 261 5,500 -171 Climbing FlightAware ADS-B
Fri 03:48:12 AM -12.3300 130.5710 17° North 223 257 5,200 -450 Descending FlightAware ADS-B
Fri 03:48:22 AM -12.3230 130.5790 48° Northeast 219 252 5,200 -300 Level FlightAware ADS-B
Fri 03:48:32 AM -12.3210 130.5880 77° East 221 254 5,100 -400 Descending FlightAware ADS-B
Fri 03:48:52 AM -12.3240 130.6090 98° East 222 255 5,000 -480 Descending FlightAware ADS-B
Fri 03:49:22 AM -12.3330 130.6400 107° East 219 252 4,700 -800 Descending FlightAware ADS-B
Fri 03:49:52 AM -12.3430 130.6700 109° East 218 251 4,200 -1,320 Descending FlightAware ADS-B
Fri 03:50:12 AM -12.3503 130.6907 109° East 218 251 3,600 -1,200 Descending Aus ATC (RADAR)
Fri 03:50:17 AM -12.3510 130.6940 109° East 217 250 3,700 -600 Climbing FlightAware ADS-B
Fri 03:50:32 AM -12.3560 130.7090 109° East 215 247 3,400 -1,400 Descending FlightAware ADS-B
Fri 03:50:47 AM -12.3615 130.7245 109° East 214 246 3,000 -960 Descending Aus ATC (RADAR)
Fri 03:50:57 AM -12.3640 130.7310 109° East 212 244 3,000 -900 Level FlightAware ADS-B
Fri 03:51:27 AM -12.3730 130.7600 108° East 197 227 2,400 -1,320 Descending FlightAware ADS-B
Fri 03:51:47 AM -12.3800 130.7787 108° East 196 226 1,900 -1,000 Descending Aus ATC (RADAR)
Fri 03:51:57 AM -12.3820 130.7840 108° East 173 199 1,900 -960 Level FlightAware ADS-B
Fri 03:52:12 AM -12.3863 130.7980 108° East 178 205 1,500 -720 Descending Aus ATC (RADAR)
Fri 03:52:22 AM -12.3880 130.8020 108° East 153 176 1,600 -706 Climbing FlightAware ADS-B
Fri 03:52:46 AM -12.3939 130.8202 108° East 146 168 1,100 -800 Descending Aus ATC (RADAR)
Fri 03:52:52 AM -12.3940 130.8220 108° East 123 142 1,200 -286 Climbing FlightAware ADS-B
Fri 03:53:07 AM -12.3970 130.8300 111° Southeast 122 140 1,000 -1,059 Descending FlightAware ADS-B
Fri 03:53:26 AM -12.4017 130.8417 111° Southeast 123 142 600 -720 Descending Aus ATC (RADAR)
Fri 03:53:32 AM -12.4020 130.8440 111° Southeast 125 144 700 -286 Climbing FlightAware ADS-B
Fri 03:53:47 AM -12.4050 130.8520 111° Southeast 127 146 500 -600 Descending FlightAware ADS-B
Fri 03:54:12 AM -12.4100 130.8670 109° East 126 145 300 -480 Descending FlightAware ADS-B

Login

Don't have an account? Register now (free) for customized features, flight alerts, and more!